This is the latest recevied weather packets stored in our database for station/object W4MLN-1. If no packets are shown the sender has not sent any weather packets the latest 10 day(s).
| Time | Temp. | Humidity | Pressure | Rain* | Wind** | Luminosity | Snow |
|---|---|---|---|---|---|---|---|
| 1777995809 | 19.44° C | 46% | 1016.1 hPa | 0 mm | - | 665 W/m² | - |
| 1777995510 | 18.89° C | 48% | 1016.1 hPa | 0 mm | - | 702 W/m² | - |
| 1777995209 | 18.89° C | 49% | 1016.1 hPa | 0 mm | - | 682 W/m² | - |
| 1777994910 | 18.89° C | 49% | 1016.1 hPa | 0 mm | - | 665 W/m² | - |
| 1777994609 | 19.44° C | 48% | 1016.2 hPa | 0 mm | - | 692 W/m² | - |
| 1777994309 | 18.89° C | 53% | 1016.1 hPa | 0 mm | - | 710 W/m² | - |
| 1777994009 | 18.89° C | 49% | 1016.2 hPa | 0 mm | - | 744 W/m² | - |
| 1777993707 | 18.89° C | 48% | 1016.2 hPa | 0 mm | - | 733 W/m² | - |
| 1777993404 | 18.89° C | 50% | 1016.3 hPa | 0 mm | - | 736 W/m² | - |
| 1777993104 | 18.89° C | 49% | 1016.3 hPa | 0 mm | - | 749 W/m² | - |
| 1777992804 | 18.33° C | 51% | 1016.3 hPa | 0 mm | - | 767 W/m² | - |
| 1777992504 | 18.33° C | 50% | 1016.2 hPa | 0 mm | - | 761 W/m² | - |
| 1777992204 | 18.33° C | 51% | 1016.3 hPa | 0 mm | - | 736 W/m² | - |
| 1777991904 | 18.33° C | 50% | 1016.2 hPa | 0 mm | - | 709 W/m² | - |
| 1777991604 | 18.33° C | 52% | 1016.2 hPa | 0 mm | - | 698 W/m² | - |
| 1777991304 | 18.33° C | 53% | 1016.2 hPa | 0 mm | - | 678 W/m² | - |
| 1777991004 | 17.78° C | 54% | 1016.3 hPa | 0 mm | - | 659 W/m² | - |
| 1777990704 | 17.78° C | 54% | 1016.1 hPa | 0 mm | - | 651 W/m² | - |
| 1777990405 | 17.78° C | 53% | 1016.2 hPa | 0 mm | - | 635 W/m² | - |
| 1777989801 | 17.22° C | 55% | 1016 hPa | 0 mm | - | 543 W/m² | - |
| 1777989502 | 17.22° C | 57% | 1016 hPa | 0 mm | - | 489 W/m² | - |
| 1777989201 | 16.67° C | 60% | 1016 hPa | 0 mm | - | 500 W/m² | - |
| 1777988901 | 16.11° C | 60% | 1016 hPa | 0 mm | - | 402 W/m² | - |
| 1777988602 | 15.56° C | 62% | 1016 hPa | 0 mm | - | 458 W/m² | - |
| 1777988302 | 14.44° C | 70% | 1016 hPa | 0 mm | - | 477 W/m² | - |
* Rain latest hour (hover to see other rain measurements)
** Current wind speed in m/s (hover to see current wind gust speed)